Airfield :
LOGIN :

Register | Disclaimer

   EN    FR    IT 

 










Legend :    VFR   Marginal VFR   IFR   Intensive IFR   Very Intensive IFR
Visi :
Ceiling :
>= 8 km
>= 3000ft
5 to 8 km
1000 to 3000 ft
1500m to 5 km
500 to 1000 ft
800 to 1500m
200 to 500 ft
< 800m
< 200 ft
Symbols :   Thunderstorms  Fog  Heavy snow  Heavy precipitations  Wind > 20 kt
SIGMETs :     Misc.  Thunderstorms  Icing  Turbulence  Mountain Waves  Volcanic Ashes







- Airport Elevation : 33 ft
- IATA code : MHZ


EGUN - RAF Mildenhall

CURRENT METAR :
  • 201356Z AUTO 22008KT 9999 FEW140 FEW180 FEW200 26/12 A2990 RMK AO2 SLP128 T02620115 $

EXPIRED METARs :
  • 201256Z AUTO 21007KT 9999 FEW065 SCT160 SCT190 SCT210 27/11 A2991 RMK AO2 SLP131 T02660107 $
  • 201156Z AUTO 15010KT 9999 FEW190 27/10 A2992 RMK AO2 SLP135 60000 T02720095 10272 20156 57012 $

TAF TAF EGUN
Valid from the 20 at 12:00 until the 21 at 18:00 UTC


201201Z 2012/2118 15009KT 9999 SCT070 QNH2991INS
BECMG 2021/2022 VRB06KT 9999 BKN050 QNH2989INS
BECMG 2110/2111 VRB06KT 9999 FEW050 QNH2990INS TX29/2013Z TN09/2104Z
No reported NOTAMs for that airfield.



MET'MAP, your aeronautical weather chart ! - Copyright ORBIFLY December 2007 - Disclaimer

ORBIFLY MET'MAP TEAM :

Programming & Development : Alexandra Zaïnal
Concept & Development : Baudouin d'Aumeries
Co-Development & Prog : Marc-Olivier Méhu
Technical & hardware support : Manuel Goepfert

Contact : metmap@orbifly.com




SOURCES & CREDITS :

   NOAA